sensor_id;sensor_type;location;lat;lon;timestamp;P1;durP1;ratioP1;P2;durP2;ratioP2
39190;SDS011;24916;51.676;6.614;2023-04-24T00:01:56;4.43;;;1.70;;
39190;SDS011;24916;51.676;6.614;2023-04-24T00:04:23;2.90;;;1.25;;
39190;SDS011;24916;51.676;6.614;2023-04-24T00:06:50;3.42;;;1.52;;
39190;SDS011;24916;51.676;6.614;2023-04-24T00:09:18;2.55;;;1.55;;
39190;SDS011;24916;51.676;6.614;2023-04-24T00:11:44;3.75;;;1.50;;
39190;SDS011;24916;51.676;6.614;2023-04-24T00:14:09;1.52;;;1.30;;
39190;SDS011;24916;51.676;6.614;2023-04-24T00:16:34;2.42;;;1.50;;
39190;SDS011;24916;51.676;6.614;2023-04-24T00:19:00;2.30;;;1.55;;
39190;SDS011;24916;51.676;6.614;2023-04-24T00:21:25;3.08;;;1.50;;
39190;SDS011;24916;51.676;6.614;2023-04-24T00:23:51;6.82;;;1.88;;
39190;SDS011;24916;51.676;6.614;2023-04-24T00:26:16;3.53;;;1.83;;
39190;SDS011;24916;51.676;6.614;2023-04-24T00:28:41;3.25;;;2.00;;
39190;SDS011;24916;51.676;6.614;2023-04-24T00:31:07;5.70;;;1.77;;
39190;SDS011;24916;51.676;6.614;2023-04-24T00:33:32;3.35;;;1.98;;
39190;SDS011;24916;51.676;6.614;2023-04-24T00:35:58;3.42;;;2.22;;
39190;SDS011;24916;51.676;6.614;2023-04-24T00:38:23;4.68;;;2.20;;
39190;SDS011;24916;51.676;6.614;2023-04-24T00:40:49;4.43;;;2.15;;
39190;SDS011;24916;51.676;6.614;2023-04-24T00:43:18;1.98;;;1.70;;
39190;SDS011;24916;51.676;6.614;2023-04-24T00:45:44;4.43;;;2.33;;
39190;SDS011;24916;51.676;6.614;2023-04-24T00:48:09;3.35;;;2.33;;
39190;SDS011;24916;51.676;6.614;2023-04-24T00:50:37;6.35;;;3.00;;
39190;SDS011;24916;51.676;6.614;2023-04-24T00:53:03;3.65;;;2.55;;
39190;SDS011;24916;51.676;6.614;2023-04-24T00:55:28;3.85;;;2.67;;
39190;SDS011;24916;51.676;6.614;2023-04-24T00:57:53;3.25;;;2.67;;
39190;SDS011;24916;51.676;6.614;2023-04-24T01:00:19;4.63;;;3.50;;
39190;SDS011;24916;51.676;6.614;2023-04-24T01:02:45;4.47;;;3.28;;
39190;SDS011;24916;51.676;6.614;2023-04-24T01:05:11;7.70;;;3.20;;
39190;SDS011;24916;51.676;6.614;2023-04-24T01:07:37;5.97;;;2.83;;
39190;SDS011;24916;51.676;6.614;2023-04-24T01:10:03;7.00;;;3.10;;
39190;SDS011;24916;51.676;6.614;2023-04-24T01:12:28;4.35;;;3.00;;
39190;SDS011;24916;51.676;6.614;2023-04-24T01:14:54;7.78;;;3.08;;
39190;SDS011;24916;51.676;6.614;2023-04-24T01:17:20;6.18;;;2.80;;
39190;SDS011;24916;51.676;6.614;2023-04-24T01:19:46;5.25;;;3.28;;
39190;SDS011;24916;51.676;6.614;2023-04-24T01:22:12;5.78;;;3.40;;
39190;SDS011;24916;51.676;6.614;2023-04-24T01:24:38;6.60;;;3.30;;
39190;SDS011;24916;51.676;6.614;2023-04-24T01:27:03;4.47;;;3.15;;
39190;SDS011;24916;51.676;6.614;2023-04-24T01:29:28;4.85;;;3.83;;
39190;SDS011;24916;51.676;6.614;2023-04-24T01:31:54;5.45;;;3.22;;
39190;SDS011;24916;51.676;6.614;2023-04-24T01:34:20;7.05;;;4.25;;
39190;SDS011;24916;51.676;6.614;2023-04-24T01:36:45;7.10;;;3.67;;
39190;SDS011;24916;51.676;6.614;2023-04-24T01:39:11;7.18;;;3.70;;
39190;SDS011;24916;51.676;6.614;2023-04-24T01:41:36;7.50;;;4.10;;
39190;SDS011;24916;51.676;6.614;2023-04-24T01:44:01;5.60;;;4.05;;
39190;SDS011;24916;51.676;6.614;2023-04-24T01:46:27;8.05;;;4.50;;
39190;SDS011;24916;51.676;6.614;2023-04-24T01:48:52;7.53;;;4.00;;
39190;SDS011;24916;51.676;6.614;2023-04-24T01:51:17;9.05;;;4.22;;
39190;SDS011;24916;51.676;6.614;2023-04-24T01:53:42;8.80;;;4.80;;
39190;SDS011;24916;51.676;6.614;2023-04-24T01:56:08;8.43;;;4.35;;
39190;SDS011;24916;51.676;6.614;2023-04-24T01:58:33;7.72;;;4.93;;
39190;SDS011;24916;51.676;6.614;2023-04-24T02:00:59;7.28;;;4.57;;
39190;SDS011;24916;51.676;6.614;2023-04-24T02:03:25;6.47;;;4.47;;
39190;SDS011;24916;51.676;6.614;2023-04-24T02:05:51;10.55;;;5.20;;
39190;SDS011;24916;51.676;6.614;2023-04-24T02:08:16;7.30;;;5.00;;
39190;SDS011;24916;51.676;6.614;2023-04-24T02:10:41;14.13;;;5.50;;
39190;SDS011;24916;51.676;6.614;2023-04-24T02:13:06;8.63;;;5.78;;
39190;SDS011;24916;51.676;6.614;2023-04-24T02:15:31;10.85;;;6.20;;
39190;SDS011;24916;51.676;6.614;2023-04-24T02:17:57;8.45;;;5.75;;
39190;SDS011;24916;51.676;6.614;2023-04-24T02:20:22;13.15;;;6.05;;
39190;SDS011;24916;51.676;6.614;2023-04-24T02:22:47;9.50;;;6.25;;
39190;SDS011;24916;51.676;6.614;2023-04-24T02:25:12;8.05;;;6.40;;
39190;SDS011;24916;51.676;6.614;2023-04-24T02:27:38;11.82;;;6.60;;
39190;SDS011;24916;51.676;6.614;2023-04-24T02:30:03;11.57;;;6.55;;
39190;SDS011;24916;51.676;6.614;2023-04-24T02:32:28;12.55;;;6.57;;
39190;SDS011;24916;51.676;6.614;2023-04-24T02:34:53;9.63;;;6.57;;
39190;SDS011;24916;51.676;6.614;2023-04-24T02:37:19;9.00;;;7.15;;
39190;SDS011;24916;51.676;6.614;2023-04-24T02:39:44;11.25;;;7.45;;
39190;SDS011;24916;51.676;6.614;2023-04-24T02:42:09;14.27;;;7.70;;
39190;SDS011;24916;51.676;6.614;2023-04-24T02:44:35;13.18;;;7.78;;
39190;SDS011;24916;51.676;6.614;2023-04-24T02:47:00;14.05;;;7.95;;
39190;SDS011;24916;51.676;6.614;2023-04-24T02:49:25;10.88;;;6.80;;
39190;SDS011;24916;51.676;6.614;2023-04-24T02:51:51;11.90;;;7.38;;
39190;SDS011;24916;51.676;6.614;2023-04-24T02:54:16;14.25;;;7.93;;
39190;SDS011;24916;51.676;6.614;2023-04-24T02:56:41;14.75;;;7.60;;
39190;SDS011;24916;51.676;6.614;2023-04-24T02:59:06;21.17;;;7.63;;
39190;SDS011;24916;51.676;6.614;2023-04-24T03:01:31;12.32;;;7.88;;
39190;SDS011;24916;51.676;6.614;2023-04-24T03:03:57;10.27;;;7.20;;
39190;SDS011;24916;51.676;6.614;2023-04-24T03:06:22;13.75;;;8.70;;
39190;SDS011;24916;51.676;6.614;2023-04-24T03:08:48;17.83;;;9.57;;
39190;SDS011;24916;51.676;6.614;2023-04-24T03:11:13;21.35;;;9.45;;
39190;SDS011;24916;51.676;6.614;2023-04-24T03:13:38;15.32;;;9.77;;
39190;SDS011;24916;51.676;6.614;2023-04-24T03:16:03;16.15;;;9.63;;
39190;SDS011;24916;51.676;6.614;2023-04-24T03:18:29;15.00;;;9.65;;
39190;SDS011;24916;51.676;6.614;2023-04-24T03:20:54;15.20;;;10.77;;
39190;SDS011;24916;51.676;6.614;2023-04-24T03:23:19;15.07;;;10.25;;
39190;SDS011;24916;51.676;6.614;2023-04-24T03:25:44;14.90;;;10.05;;
39190;SDS011;24916;51.676;6.614;2023-04-24T03:28:10;18.42;;;10.82;;
39190;SDS011;24916;51.676;6.614;2023-04-24T03:30:35;18.63;;;10.57;;
39190;SDS011;24916;51.676;6.614;2023-04-24T03:33:00;14.80;;;10.48;;
39190;SDS011;24916;51.676;6.614;2023-04-24T03:35:26;16.48;;;11.10;;
39190;SDS011;24916;51.676;6.614;2023-04-24T03:37:51;17.58;;;10.95;;
39190;SDS011;24916;51.676;6.614;2023-04-24T03:40:16;15.65;;;10.20;;
39190;SDS011;24916;51.676;6.614;2023-04-24T03:42:42;19.30;;;10.90;;
39190;SDS011;24916;51.676;6.614;2023-04-24T03:45:07;18.35;;;10.77;;
39190;SDS011;24916;51.676;6.614;2023-04-24T03:47:33;14.30;;;10.18;;
39190;SDS011;24916;51.676;6.614;2023-04-24T03:49:58;15.77;;;11.55;;
39190;SDS011;24916;51.676;6.614;2023-04-24T03:52:23;13.82;;;10.07;;
39190;SDS011;24916;51.676;6.614;2023-04-24T03:54:48;14.88;;;10.85;;
39190;SDS011;24916;51.676;6.614;2023-04-24T03:57:14;11.00;;;9.38;;
39190;SDS011;24916;51.676;6.614;2023-04-24T03:59:39;18.88;;;11.13;;
39190;SDS011;24916;51.676;6.614;2023-04-24T04:02:04;16.00;;;9.60;;
39190;SDS011;24916;51.676;6.614;2023-04-24T04:04:30;15.80;;;10.80;;
39190;SDS011;24916;51.676;6.614;2023-04-24T04:06:55;13.63;;;10.38;;
39190;SDS011;24916;51.676;6.614;2023-04-24T04:09:20;17.02;;;10.70;;
39190;SDS011;24916;51.676;6.614;2023-04-24T04:11:45;30.48;;;13.68;;
39190;SDS011;24916;51.676;6.614;2023-04-24T04:14:10;15.65;;;9.82;;
39190;SDS011;24916;51.676;6.614;2023-04-24T04:16:36;14.73;;;9.25;;
39190;SDS011;24916;51.676;6.614;2023-04-24T04:19:01;16.45;;;9.55;;
39190;SDS011;24916;51.676;6.614;2023-04-24T04:21:27;14.65;;;10.23;;
39190;SDS011;24916;51.676;6.614;2023-04-24T04:23:53;15.40;;;9.70;;
39190;SDS011;24916;51.676;6.614;2023-04-24T04:26:18;12.65;;;8.75;;
39190;SDS011;24916;51.676;6.614;2023-04-24T04:28:44;14.70;;;8.95;;
39190;SDS011;24916;51.676;6.614;2023-04-24T04:31:09;13.23;;;9.50;;
39190;SDS011;24916;51.676;6.614;2023-04-24T04:33:34;18.58;;;9.52;;
39190;SDS011;24916;51.676;6.614;2023-04-24T04:36:01;12.25;;;9.35;;
39190;SDS011;24916;51.676;6.614;2023-04-24T04:38:26;11.05;;;8.48;;
39190;SDS011;24916;51.676;6.614;2023-04-24T04:40:55;14.68;;;9.27;;
39190;SDS011;24916;51.676;6.614;2023-04-24T04:43:21;14.35;;;9.20;;
39190;SDS011;24916;51.676;6.614;2023-04-24T04:45:47;14.65;;;8.35;;
39190;SDS011;24916;51.676;6.614;2023-04-24T04:48:13;16.75;;;9.25;;
39190;SDS011;24916;51.676;6.614;2023-04-24T04:50:39;14.95;;;8.57;;
39190;SDS011;24916;51.676;6.614;2023-04-24T04:53:04;14.90;;;8.32;;
39190;SDS011;24916;51.676;6.614;2023-04-24T04:55:30;14.82;;;9.68;;
39190;SDS011;24916;51.676;6.614;2023-04-24T04:57:55;13.73;;;9.05;;
39190;SDS011;24916;51.676;6.614;2023-04-24T05:00:21;14.75;;;9.02;;
39190;SDS011;24916;51.676;6.614;2023-04-24T05:02:46;17.23;;;9.73;;
39190;SDS011;24916;51.676;6.614;2023-04-24T05:05:11;19.13;;;9.15;;
39190;SDS011;24916;51.676;6.614;2023-04-24T05:07:36;18.00;;;11.10;;
39190;SDS011;24916;51.676;6.614;2023-04-24T05:10:02;19.67;;;11.95;;
39190;SDS011;24916;51.676;6.614;2023-04-24T05:12:27;16.25;;;9.18;;
39190;SDS011;24916;51.676;6.614;2023-04-24T05:14:53;14.25;;;8.82;;
39190;SDS011;24916;51.676;6.614;2023-04-24T05:17:18;16.67;;;8.88;;
39190;SDS011;24916;51.676;6.614;2023-04-24T05:19:43;10.50;;;7.70;;
39190;SDS011;24916;51.676;6.614;2023-04-24T05:22:08;12.63;;;8.15;;
39190;SDS011;24916;51.676;6.614;2023-04-24T05:24:34;12.82;;;8.32;;
39190;SDS011;24916;51.676;6.614;2023-04-24T05:27:00;9.85;;;7.18;;
39190;SDS011;24916;51.676;6.614;2023-04-24T05:29:25;11.35;;;7.32;;
39190;SDS011;24916;51.676;6.614;2023-04-24T05:31:51;8.98;;;7.07;;
39190;SDS011;24916;51.676;6.614;2023-04-24T05:34:16;11.70;;;7.65;;
39190;SDS011;24916;51.676;6.614;2023-04-24T05:36:42;9.43;;;7.32;;
39190;SDS011;24916;51.676;6.614;2023-04-24T05:39:07;7.82;;;6.72;;
39190;SDS011;24916;51.676;6.614;2023-04-24T05:41:33;25.25;;;14.77;;
39190;SDS011;24916;51.676;6.614;2023-04-24T05:43:58;15.00;;;10.05;;
39190;SDS011;24916;51.676;6.614;2023-04-24T05:46:24;8.13;;;6.63;;
39190;SDS011;24916;51.676;6.614;2023-04-24T05:48:49;9.85;;;6.10;;
39190;SDS011;24916;51.676;6.614;2023-04-24T05:51:14;8.45;;;5.90;;
39190;SDS011;24916;51.676;6.614;2023-04-24T05:53:39;9.05;;;6.32;;
39190;SDS011;24916;51.676;6.614;2023-04-24T05:56:05;10.00;;;5.85;;
39190;SDS011;24916;51.676;6.614;2023-04-24T05:58:30;7.00;;;5.95;;
39190;SDS011;24916;51.676;6.614;2023-04-24T06:00:55;8.68;;;6.13;;
39190;SDS011;24916;51.676;6.614;2023-04-24T06:03:22;8.57;;;5.93;;
39190;SDS011;24916;51.676;6.614;2023-04-24T06:05:49;10.52;;;6.60;;
39190;SDS011;24916;51.676;6.614;2023-04-24T06:08:14;8.38;;;5.72;;
39190;SDS011;24916;51.676;6.614;2023-04-24T06:10:40;7.13;;;6.07;;
39190;SDS011;24916;51.676;6.614;2023-04-24T06:13:05;8.15;;;6.40;;
39190;SDS011;24916;51.676;6.614;2023-04-24T06:15:31;8.65;;;5.38;;
39190;SDS011;24916;51.676;6.614;2023-04-24T06:17:57;7.32;;;5.88;;
39190;SDS011;24916;51.676;6.614;2023-04-24T06:20:22;7.72;;;5.70;;
39190;SDS011;24916;51.676;6.614;2023-04-24T06:22:47;11.57;;;6.00;;
39190;SDS011;24916;51.676;6.614;2023-04-24T06:25:12;9.25;;;5.55;;
39190;SDS011;24916;51.676;6.614;2023-04-24T06:27:38;10.85;;;6.45;;
39190;SDS011;24916;51.676;6.614;2023-04-24T06:30:03;12.85;;;8.48;;
39190;SDS011;24916;51.676;6.614;2023-04-24T06:32:28;9.77;;;5.95;;
39190;SDS011;24916;51.676;6.614;2023-04-24T06:34:55;6.45;;;5.68;;
39190;SDS011;24916;51.676;6.614;2023-04-24T06:37:20;6.47;;;5.68;;
39190;SDS011;24916;51.676;6.614;2023-04-24T06:39:46;7.97;;;5.47;;
39190;SDS011;24916;51.676;6.614;2023-04-24T06:42:11;7.50;;;5.63;;
39190;SDS011;24916;51.676;6.614;2023-04-24T06:44:36;7.50;;;5.35;;
39190;SDS011;24916;51.676;6.614;2023-04-24T06:47:06;6.80;;;5.32;;
39190;SDS011;24916;51.676;6.614;2023-04-24T06:49:31;11.05;;;4.97;;
39190;SDS011;24916;51.676;6.614;2023-04-24T06:51:56;7.35;;;5.63;;
39190;SDS011;24916;51.676;6.614;2023-04-24T06:54:21;5.80;;;5.00;;
39190;SDS011;24916;51.676;6.614;2023-04-24T06:56:47;8.00;;;5.18;;
39190;SDS011;24916;51.676;6.614;2023-04-24T06:59:13;6.97;;;4.35;;
39190;SDS011;24916;51.676;6.614;2023-04-24T07:01:38;6.43;;;4.60;;
39190;SDS011;24916;51.676;6.614;2023-04-24T07:04:04;6.45;;;4.50;;
39190;SDS011;24916;51.676;6.614;2023-04-24T07:06:29;8.10;;;5.57;;
39190;SDS011;24916;51.676;6.614;2023-04-24T07:08:55;7.40;;;5.40;;
39190;SDS011;24916;51.676;6.614;2023-04-24T07:11:21;8.25;;;4.80;;
39190;SDS011;24916;51.676;6.614;2023-04-24T07:13:47;4.85;;;3.83;;
39190;SDS011;24916;51.676;6.614;2023-04-24T07:16:12;5.65;;;3.78;;
39190;SDS011;24916;51.676;6.614;2023-04-24T07:18:38;5.63;;;3.40;;
39190;SDS011;24916;51.676;6.614;2023-04-24T07:21:04;5.35;;;3.40;;
39190;SDS011;24916;51.676;6.614;2023-04-24T07:23:29;5.13;;;3.30;;
39190;SDS011;24916;51.676;6.614;2023-04-24T07:25:55;4.20;;;3.30;;
39190;SDS011;24916;51.676;6.614;2023-04-24T07:28:20;3.95;;;2.80;;
39190;SDS011;24916;51.676;6.614;2023-04-24T07:30:46;2.80;;;2.13;;
39190;SDS011;24916;51.676;6.614;2023-04-24T07:33:11;4.07;;;2.70;;
39190;SDS011;24916;51.676;6.614;2023-04-24T07:35:38;3.50;;;2.20;;
39190;SDS011;24916;51.676;6.614;2023-04-24T07:38:03;3.78;;;2.47;;
39190;SDS011;24916;51.676;6.614;2023-04-24T07:40:28;2.75;;;1.95;;
39190;SDS011;24916;51.676;6.614;2023-04-24T07:42:53;4.68;;;2.67;;
39190;SDS011;24916;51.676;6.614;2023-04-24T07:45:19;4.65;;;2.05;;
39190;SDS011;24916;51.676;6.614;2023-04-24T07:47:44;5.15;;;1.70;;
39190;SDS011;24916;51.676;6.614;2023-04-24T07:50:11;2.35;;;1.55;;
39190;SDS011;24916;51.676;6.614;2023-04-24T07:52:36;2.13;;;1.38;;
39190;SDS011;24916;51.676;6.614;2023-04-24T07:55:01;2.05;;;1.17;;
39190;SDS011;24916;51.676;6.614;2023-04-24T07:57:27;3.78;;;2.40;;
39190;SDS011;24916;51.676;6.614;2023-04-24T07:59:52;2.97;;;1.73;;
39190;SDS011;24916;51.676;6.614;2023-04-24T08:02:17;4.05;;;1.80;;
39190;SDS011;24916;51.676;6.614;2023-04-24T08:04:43;3.55;;;2.83;;
39190;SDS011;24916;51.676;6.614;2023-04-24T08:07:08;2.72;;;2.25;;
39190;SDS011;24916;51.676;6.614;2023-04-24T08:09:33;3.35;;;1.90;;
39190;SDS011;24916;51.676;6.614;2023-04-24T08:11:58;2.90;;;2.20;;
39190;SDS011;24916;51.676;6.614;2023-04-24T08:14:24;6.00;;;2.53;;
39190;SDS011;24916;51.676;6.614;2023-04-24T08:16:50;2.25;;;1.90;;
39190;SDS011;24916;51.676;6.614;2023-04-24T08:19:15;4.60;;;3.50;;
39190;SDS011;24916;51.676;6.614;2023-04-24T08:21:40;4.35;;;2.50;;
39190;SDS011;24916;51.676;6.614;2023-04-24T08:24:05;5.20;;;2.28;;
39190;SDS011;24916;51.676;6.614;2023-04-24T08:26:32;3.10;;;2.80;;
39190;SDS011;24916;51.676;6.614;2023-04-24T08:28:58;2.80;;;2.00;;
39190;SDS011;24916;51.676;6.614;2023-04-24T08:31:23;3.38;;;1.98;;
39190;SDS011;24916;51.676;6.614;2023-04-24T08:33:50;2.78;;;2.05;;
39190;SDS011;24916;51.676;6.614;2023-04-24T08:36:24;2.85;;;1.90;;
39190;SDS011;24916;51.676;6.614;2023-04-24T08:38:52;2.90;;;1.88;;
39190;SDS011;24916;51.676;6.614;2023-04-24T08:41:18;1.55;;;1.33;;
39190;SDS011;24916;51.676;6.614;2023-04-24T08:43:45;3.10;;;2.03;;
39190;SDS011;24916;51.676;6.614;2023-04-24T08:46:11;2.47;;;1.17;;
39190;SDS011;24916;51.676;6.614;2023-04-24T08:48:37;1.80;;;0.90;;
39190;SDS011;24916;51.676;6.614;2023-04-24T08:51:03;0.90;;;0.77;;
39190;SDS011;24916;51.676;6.614;2023-04-24T08:53:30;1.00;;;0.60;;
39190;SDS011;24916;51.676;6.614;2023-04-24T08:55:57;0.75;;;0.68;;
39190;SDS011;24916;51.676;6.614;2023-04-24T08:58:25;1.58;;;0.50;;
39190;SDS011;24916;51.676;6.614;2023-04-24T09:00:51;0.98;;;0.65;;
39190;SDS011;24916;51.676;6.614;2023-04-24T09:03:16;2.67;;;1.13;;
39190;SDS011;24916;51.676;6.614;2023-04-24T09:05:46;2.78;;;2.00;;
39190;SDS011;24916;51.676;6.614;2023-04-24T09:08:11;5.05;;;2.97;;
39190;SDS011;24916;51.676;6.614;2023-04-24T09:10:38;4.35;;;3.63;;
39190;SDS011;24916;51.676;6.614;2023-04-24T09:13:04;6.25;;;4.57;;
39190;SDS011;24916;51.676;6.614;2023-04-24T09:15:29;6.63;;;4.63;;
39190;SDS011;24916;51.676;6.614;2023-04-24T09:17:55;7.15;;;4.40;;
39190;SDS011;24916;51.676;6.614;2023-04-24T09:20:20;11.00;;;5.30;;
39190;SDS011;24916;51.676;6.614;2023-04-24T09:22:45;10.60;;;5.25;;
39190;SDS011;24916;51.676;6.614;2023-04-24T09:25:10;6.45;;;4.90;;
39190;SDS011;24916;51.676;6.614;2023-04-24T09:27:37;6.38;;;4.55;;
39190;SDS011;24916;51.676;6.614;2023-04-24T09:30:06;9.55;;;4.50;;
39190;SDS011;24916;51.676;6.614;2023-04-24T09:32:32;7.80;;;4.70;;
39190;SDS011;24916;51.676;6.614;2023-04-24T09:42:53;6.85;;;4.78;;
39190;SDS011;24916;51.676;6.614;2023-04-24T09:45:19;8.88;;;5.30;;
39190;SDS011;24916;51.676;6.614;2023-04-24T09:47:44;6.05;;;4.43;;
39190;SDS011;24916;51.676;6.614;2023-04-24T09:50:11;10.32;;;5.63;;
39190;SDS011;24916;51.676;6.614;2023-04-24T09:52:39;7.13;;;5.13;;
39190;SDS011;24916;51.676;6.614;2023-04-24T09:55:10;10.35;;;5.28;;
39190;SDS011;24916;51.676;6.614;2023-04-24T09:57:35;9.32;;;5.35;;
39190;SDS011;24916;51.676;6.614;2023-04-24T10:00:00;10.23;;;4.82;;
39190;SDS011;24916;51.676;6.614;2023-04-24T10:02:25;9.25;;;5.00;;
39190;SDS011;24916;51.676;6.614;2023-04-24T10:04:55;8.05;;;4.90;;
39190;SDS011;24916;51.676;6.614;2023-04-24T10:07:27;6.97;;;5.38;;
39190;SDS011;24916;51.676;6.614;2023-04-24T10:09:52;11.57;;;5.80;;
39190;SDS011;24916;51.676;6.614;2023-04-24T10:12:18;8.98;;;4.50;;
39190;SDS011;24916;51.676;6.614;2023-04-24T10:14:44;8.75;;;4.43;;
39190;SDS011;24916;51.676;6.614;2023-04-24T10:17:10;8.85;;;3.88;;
39190;SDS011;24916;51.676;6.614;2023-04-24T10:19:35;9.80;;;3.83;;
39190;SDS011;24916;51.676;6.614;2023-04-24T10:22:02;12.48;;;4.18;;
39190;SDS011;24916;51.676;6.614;2023-04-24T10:24:28;11.52;;;3.92;;
39190;SDS011;24916;51.676;6.614;2023-04-24T10:26:53;11.32;;;3.33;;
39190;SDS011;24916;51.676;6.614;2023-04-24T10:29:18;12.27;;;4.40;;
39190;SDS011;24916;51.676;6.614;2023-04-24T10:31:44;10.73;;;3.15;;
39190;SDS011;24916;51.676;6.614;2023-04-24T10:34:13;9.00;;;3.05;;
39190;SDS011;24916;51.676;6.614;2023-04-24T10:36:41;14.05;;;3.83;;
39190;SDS011;24916;51.676;6.614;2023-04-24T10:39:07;12.20;;;3.50;;
39190;SDS011;24916;51.676;6.614;2023-04-24T10:41:33;11.85;;;3.75;;
39190;SDS011;24916;51.676;6.614;2023-04-24T10:44:08;11.70;;;3.67;;
39190;SDS011;24916;51.676;6.614;2023-04-24T10:46:34;9.15;;;3.72;;
39190;SDS011;24916;51.676;6.614;2023-04-24T10:49:00;15.82;;;3.83;;
39190;SDS011;24916;51.676;6.614;2023-04-24T10:59:51;13.63;;;3.03;;
39190;SDS011;24916;51.676;6.614;2023-04-24T11:02:17;8.95;;;2.35;;
39190;SDS011;24916;51.676;6.614;2023-04-24T11:04:42;14.80;;;2.50;;
39190;SDS011;24916;51.676;6.614;2023-04-24T11:07:08;9.05;;;2.67;;
39190;SDS011;24916;51.676;6.614;2023-04-24T11:09:34;13.55;;;2.60;;
39190;SDS011;24916;51.676;6.614;2023-04-24T11:12:08;12.07;;;2.80;;
39190;SDS011;24916;51.676;6.614;2023-04-24T11:17:32;12.23;;;3.60;;
39190;SDS011;24916;51.676;6.614;2023-04-24T11:20:05;8.85;;;2.20;;
39190;SDS011;24916;51.676;6.614;2023-04-24T11:22:34;10.43;;;2.42;;
39190;SDS011;24916;51.676;6.614;2023-04-24T11:25:00;9.25;;;2.17;;
39190;SDS011;24916;51.676;6.614;2023-04-24T11:27:30;9.23;;;2.05;;
39190;SDS011;24916;51.676;6.614;2023-04-24T11:34:46;4.97;;;1.52;;
39190;SDS011;24916;51.676;6.614;2023-04-24T11:37:12;6.00;;;1.65;;
39190;SDS011;24916;51.676;6.614;2023-04-24T11:39:37;7.82;;;1.27;;
39190;SDS011;24916;51.676;6.614;2023-04-24T11:42:03;2.25;;;1.20;;
39190;SDS011;24916;51.676;6.614;2023-04-24T11:44:28;7.22;;;1.90;;
39190;SDS011;24916;51.676;6.614;2023-04-24T11:46:55;5.22;;;1.50;;
39190;SDS011;24916;51.676;6.614;2023-04-24T11:49:20;7.32;;;1.50;;
39190;SDS011;24916;51.676;6.614;2023-04-24T11:51:46;5.20;;;1.63;;
39190;SDS011;24916;51.676;6.614;2023-04-24T11:54:11;9.20;;;1.92;;
39190;SDS011;24916;51.676;6.614;2023-04-24T11:56:36;4.10;;;1.52;;
39190;SDS011;24916;51.676;6.614;2023-04-24T11:59:03;10.95;;;2.22;;
39190;SDS011;24916;51.676;6.614;2023-04-24T12:01:29;7.32;;;1.25;;
39190;SDS011;24916;51.676;6.614;2023-04-24T12:03:59;5.10;;;1.13;;
39190;SDS011;24916;51.676;6.614;2023-04-24T12:06:24;2.30;;;0.90;;
39190;SDS011;24916;51.676;6.614;2023-04-24T12:08:50;3.28;;;1.13;;
39190;SDS011;24916;51.676;6.614;2023-04-24T12:11:17;2.75;;;0.90;;
39190;SDS011;24916;51.676;6.614;2023-04-24T12:13:43;4.82;;;1.42;;
39190;SDS011;24916;51.676;6.614;2023-04-24T12:16:09;7.03;;;1.55;;
39190;SDS011;24916;51.676;6.614;2023-04-24T12:18:34;5.25;;;2.33;;
39190;SDS011;24916;51.676;6.614;2023-04-24T12:23:45;3.30;;;1.40;;
39190;SDS011;24916;51.676;6.614;2023-04-24T12:26:12;2.92;;;1.02;;
39190;SDS011;24916;51.676;6.614;2023-04-24T12:28:37;2.35;;;1.10;;
39190;SDS011;24916;51.676;6.614;2023-04-24T12:31:03;4.40;;;1.45;;
39190;SDS011;24916;51.676;6.614;2023-04-24T12:33:32;5.22;;;1.05;;
39190;SDS011;24916;51.676;6.614;2023-04-24T12:35:57;2.45;;;1.10;;
39190;SDS011;24916;51.676;6.614;2023-04-24T12:38:23;2.53;;;1.00;;
39190;SDS011;24916;51.676;6.614;2023-04-24T12:41:04;4.00;;;1.50;;
39190;SDS011;24916;51.676;6.614;2023-04-24T12:43:29;11.77;;;2.67;;
39190;SDS011;24916;51.676;6.614;2023-04-24T12:45:55;7.68;;;3.15;;
39190;SDS011;24916;51.676;6.614;2023-04-24T12:48:20;5.07;;;1.80;;
39190;SDS011;24916;51.676;6.614;2023-04-24T12:50:46;4.93;;;1.58;;
39190;SDS011;24916;51.676;6.614;2023-04-24T12:53:11;11.52;;;2.35;;
39190;SDS011;24916;51.676;6.614;2023-04-24T12:55:37;4.30;;;1.40;;
39190;SDS011;24916;51.676;6.614;2023-04-24T12:58:02;2.45;;;1.00;;
39190;SDS011;24916;51.676;6.614;2023-04-24T13:00:28;5.13;;;1.15;;
39190;SDS011;24916;51.676;6.614;2023-04-24T13:02:53;6.65;;;1.90;;
39190;SDS011;24916;51.676;6.614;2023-04-24T13:05:19;6.60;;;1.80;;
39190;SDS011;24916;51.676;6.614;2023-04-24T13:07:44;5.15;;;1.95;;
39190;SDS011;24916;51.676;6.614;2023-04-24T13:10:09;3.55;;;1.17;;
39190;SDS011;24916;51.676;6.614;2023-04-24T13:12:35;3.28;;;0.90;;
39190;SDS011;24916;51.676;6.614;2023-04-24T13:15:00;4.78;;;1.20;;
39190;SDS011;24916;51.676;6.614;2023-04-24T13:17:25;3.92;;;1.27;;
39190;SDS011;24916;51.676;6.614;2023-04-24T13:19:51;3.55;;;1.45;;
39190;SDS011;24916;51.676;6.614;2023-04-24T13:22:16;2.03;;;1.08;;
39190;SDS011;24916;51.676;6.614;2023-04-24T13:24:43;8.18;;;1.88;;
39190;SDS011;24916;51.676;6.614;2023-04-24T13:27:09;2.50;;;1.13;;
39190;SDS011;24916;51.676;6.614;2023-04-24T13:29:35;1.98;;;1.05;;
39190;SDS011;24916;51.676;6.614;2023-04-24T13:32:00;4.75;;;1.50;;
39190;SDS011;24916;51.676;6.614;2023-04-24T13:34:25;3.83;;;1.40;;
39190;SDS011;24916;51.676;6.614;2023-04-24T13:36:52;9.90;;;1.80;;
39190;SDS011;24916;51.676;6.614;2023-04-24T13:39:17;6.10;;;1.83;;
39190;SDS011;24916;51.676;6.614;2023-04-24T13:41:42;4.47;;;1.38;;
39190;SDS011;24916;51.676;6.614;2023-04-24T13:44:08;7.20;;;1.50;;
39190;SDS011;24916;51.676;6.614;2023-04-24T13:46:33;5.18;;;1.40;;
39190;SDS011;24916;51.676;6.614;2023-04-24T13:48:58;2.70;;;1.58;;
39190;SDS011;24916;51.676;6.614;2023-04-24T13:51:25;4.47;;;1.10;;
39190;SDS011;24916;51.676;6.614;2023-04-24T13:53:52;3.58;;;1.50;;
39190;SDS011;24916;51.676;6.614;2023-04-24T13:56:17;1.58;;;0.70;;
39190;SDS011;24916;51.676;6.614;2023-04-24T13:58:42;3.85;;;1.38;;
39190;SDS011;24916;51.676;6.614;2023-04-24T14:01:07;6.68;;;1.30;;
39190;SDS011;24916;51.676;6.614;2023-04-24T14:03:33;6.88;;;3.92;;
39190;SDS011;24916;51.676;6.614;2023-04-24T14:05:58;4.50;;;1.42;;
39190;SDS011;24916;51.676;6.614;2023-04-24T14:08:24;4.25;;;2.00;;
39190;SDS011;24916;51.676;6.614;2023-04-24T14:10:50;7.57;;;1.75;;
39190;SDS011;24916;51.676;6.614;2023-04-24T14:13:15;4.35;;;1.60;;
39190;SDS011;24916;51.676;6.614;2023-04-24T14:15:41;5.57;;;1.50;;
39190;SDS011;24916;51.676;6.614;2023-04-24T14:18:06;8.95;;;1.65;;
39190;SDS011;24916;51.676;6.614;2023-04-24T14:20:31;7.35;;;1.77;;
39190;SDS011;24916;51.676;6.614;2023-04-24T14:22:57;4.88;;;2.08;;
39190;SDS011;24916;51.676;6.614;2023-04-24T14:25:25;6.50;;;1.35;;
39190;SDS011;24916;51.676;6.614;2023-04-24T14:27:50;7.47;;;1.77;;
39190;SDS011;24916;51.676;6.614;2023-04-24T14:30:16;6.63;;;1.60;;
39190;SDS011;24916;51.676;6.614;2023-04-24T14:32:41;9.93;;;1.73;;
39190;SDS011;24916;51.676;6.614;2023-04-24T14:35:07;3.78;;;1.55;;
39190;SDS011;24916;51.676;6.614;2023-04-24T14:37:32;3.65;;;1.33;;
39190;SDS011;24916;51.676;6.614;2023-04-24T14:39:58;2.55;;;1.13;;
39190;SDS011;24916;51.676;6.614;2023-04-24T14:42:23;5.82;;;1.23;;
39190;SDS011;24916;51.676;6.614;2023-04-24T14:44:48;3.83;;;0.93;;
39190;SDS011;24916;51.676;6.614;2023-04-24T14:47:13;2.03;;;0.90;;
39190;SDS011;24916;51.676;6.614;2023-04-24T14:49:39;3.17;;;1.10;;
39190;SDS011;24916;51.676;6.614;2023-04-24T14:52:04;4.10;;;2.55;;
39190;SDS011;24916;51.676;6.614;2023-04-24T14:54:29;14.23;;;8.45;;
39190;SDS011;24916;51.676;6.614;2023-04-24T14:56:55;7.00;;;3.38;;
39190;SDS011;24916;51.676;6.614;2023-04-24T14:59:22;5.60;;;1.92;;
39190;SDS011;24916;51.676;6.614;2023-04-24T15:01:47;4.00;;;1.45;;